createdAt,value
2019-01-19T00:01:48.442Z,92.32
2019-01-19T00:04:54.620Z,91.75
2019-01-19T00:07:56.973Z,93.04
2019-01-19T00:11:29.006Z,92.97
2019-01-19T00:14:17.428Z,92.14
2019-01-19T00:17:11.148Z,91.76
2019-01-19T00:20:35.039Z,91.93
2019-01-19T00:23:16.154Z,93.00
2019-01-19T00:26:47.084Z,93.03
2019-01-19T00:29:35.517Z,93.54
2019-01-19T00:32:20.403Z,93.42
2019-01-19T00:35:38.325Z,92.89
2019-01-19T00:38:16.740Z,93.27
2019-01-19T00:41:36.754Z,93.08
2019-01-19T00:44:37.812Z,93.99
2019-01-19T00:47:49.689Z,94.84
2019-01-19T00:51:16.066Z,94.53
2019-01-19T00:54:10.353Z,95.62
2019-01-19T00:56:51.946Z,96.08
2019-01-19T00:59:26.921Z,95.81
2019-01-19T01:02:33.622Z,95.22
2019-01-19T01:05:25.344Z,95.10
2019-01-19T01:08:36.338Z,95.84
2019-01-19T01:11:16.910Z,95.30
2019-01-19T01:14:27.570Z,94.40
2019-01-19T01:17:42.877Z,94.04
2019-01-19T01:21:03.624Z,93.38
2019-01-19T01:24:18.920Z,92.90
2019-01-19T01:27:27.163Z,92.95
2019-01-19T01:30:36.065Z,92.85
2019-01-19T01:33:48.585Z,92.71
2019-01-19T01:36:32.766Z,93.62
2019-01-19T01:39:39.019Z,93.79
2019-01-19T01:42:31.573Z,93.84
2019-01-19T01:45:30.053Z,93.78
2019-01-19T01:48:27.048Z,94.39
2019-01-19T01:51:39.250Z,94.15
2019-01-19T01:54:24.318Z,93.55
2019-01-19T01:57:01.909Z,94.24
2019-01-19T01:59:52.747Z,95.08
2019-01-19T02:02:52.562Z,95.66
2019-01-19T02:05:40.307Z,95.55
2019-01-19T02:08:28.267Z,95.09
2019-01-19T02:11:46.876Z,96.63
2019-01-19T02:14:49.219Z,96.80
2019-01-19T02:18:00.922Z,96.80
2019-01-19T02:20:56.994Z,96.74
2019-01-19T02:24:02.467Z,96.10
2019-01-19T02:27:30.022Z,95.89
2019-01-19T02:30:50.045Z,96.66
2019-01-19T02:34:15.538Z,94.66
2019-01-19T02:37:30.453Z,96.41
2019-01-19T02:40:37.734Z,97.81
2019-01-19T02:43:22.201Z,97.37
2019-01-19T02:46:28.580Z,96.31
2019-01-19T02:49:36.106Z,95.74
2019-01-19T02:52:46.284Z,93.93
2019-01-19T02:56:01.470Z,94.58
2019-01-19T02:59:00.002Z,93.54
2019-01-19T03:02:16.424Z,92.83
2019-01-19T03:05:19.142Z,94.64
2019-01-19T03:08:31.097Z,96.20
2019-01-19T03:11:17.928Z,96.10
2019-01-19T03:14:16.008Z,95.84
2019-01-19T03:17:22.669Z,96.27
2019-01-19T03:20:31.694Z,96.00
2019-01-19T03:23:37.953Z,95.93
2019-01-19T03:26:19.791Z,96.49
2019-01-19T03:29:16.736Z,96.91
2019-01-19T03:32:25.694Z,97.15
2019-01-19T03:35:34.187Z,94.74
2019-01-19T03:38:30.914Z,95.24
2019-01-19T03:41:23.061Z,95.77
2019-01-19T03:44:42.857Z,95.97
2019-01-19T03:47:39.014Z,95.83
2019-01-19T03:50:43.116Z,94.97
2019-01-19T03:53:36.757Z,93.84
2019-01-19T03:57:06.529Z,93.63
2019-01-19T04:00:16.554Z,93.62
2019-01-19T04:03:24.063Z,92.96
2019-01-19T04:06:35.385Z,93.07
2019-01-19T04:09:33.122Z,93.09
2019-01-19T04:12:31.944Z,93.50
2019-01-19T04:16:06.047Z,93.96
2019-01-19T04:19:01.929Z,94.54
2019-01-19T04:22:08.735Z,95.12
2019-01-19T04:25:27.743Z,95.10
2019-01-19T04:28:00.431Z,94.66
2019-01-19T04:30:31.533Z,94.84
2019-01-19T04:33:02.883Z,94.72
2019-01-19T04:35:34.663Z,95.03
2019-01-19T04:38:08.616Z,95.30
2019-01-19T04:40:41.076Z,96.23
2019-01-19T04:43:15.703Z,97.60
2019-01-19T04:45:46.746Z,98.00
2019-01-19T04:48:19.679Z,97.94
2019-01-19T04:50:51.211Z,97.85
2019-01-19T04:53:22.188Z,98.23
2019-01-19T04:55:53.735Z,99.18
2019-01-19T04:58:25.346Z,98.91
2019-01-19T05:00:57.859Z,98.41
2019-01-19T05:03:31.395Z,97.23
2019-01-19T05:06:11.778Z,97.03
2019-01-19T05:08:35.691Z,96.20
2019-01-19T05:11:07.241Z,95.96
2019-01-19T05:13:38.237Z,95.96
2019-01-19T05:16:09.814Z,95.73
2019-01-19T05:18:44.534Z,94.88
2019-01-19T05:21:16.534Z,95.30
2019-01-19T05:23:49.958Z,94.97
2019-01-19T05:26:21.121Z,93.69
2019-01-19T05:28:52.534Z,92.96
2019-01-19T05:31:23.978Z,93.50
2019-01-19T05:33:55.231Z,93.06
2019-01-19T05:36:28.708Z,94.00
2019-01-19T05:38:59.839Z,96.23
2019-01-19T05:41:30.986Z,96.91
2019-01-19T05:44:02.358Z,96.16
2019-01-19T05:46:40.326Z,94.86
2019-01-19T05:49:13.188Z,93.96
2019-01-19T05:51:44.423Z,94.59
2019-01-19T05:54:16.181Z,94.92
2019-01-19T05:56:47.461Z,95.23
2019-01-19T05:59:18.730Z,94.49
2019-01-19T06:01:50.054Z,94.30
2019-01-19T06:04:21.258Z,94.76
2019-01-19T06:06:52.228Z,94.88
2019-01-19T06:09:23.249Z,92.46
2019-01-19T06:11:54.344Z,87.58
2019-01-19T06:14:28.185Z,86.15
2019-01-19T06:17:02.674Z,85.83
2019-01-19T06:19:34.039Z,87.08
2019-01-19T06:22:05.838Z,87.91
2019-01-19T06:24:36.951Z,89.39
2019-01-19T06:27:08.336Z,89.48
2019-01-19T06:29:39.720Z,89.58
2019-01-19T06:32:10.996Z,90.70
2019-01-19T06:34:42.112Z,92.02
2019-01-19T06:37:13.191Z,90.57
2019-01-19T06:39:44.195Z,91.11
2019-01-19T06:42:15.510Z,90.78
2019-01-19T06:44:46.777Z,90.69
2019-01-19T06:47:18.132Z,91.93
2019-01-19T06:49:51.582Z,92.11
2019-01-19T06:52:22.597Z,91.42
2019-01-19T06:54:53.869Z,90.09
2019-01-19T06:57:26.953Z,90.70
2019-01-19T06:59:59.684Z,92.96
2019-01-19T07:02:31.605Z,93.56
2019-01-19T07:05:06.329Z,93.83
2019-01-19T07:07:37.349Z,93.32
2019-01-19T07:10:12.740Z,91.91
2019-01-19T07:12:44.663Z,91.56
2019-01-19T07:15:23.453Z,90.77
2019-01-19T07:18:01.020Z,91.35
2019-01-19T07:20:32.630Z,90.15
2019-01-19T07:23:03.959Z,90.06
2019-01-19T07:25:37.094Z,89.00
2019-01-19T07:28:08.431Z,89.23
2019-01-19T07:30:39.498Z,88.88
2019-01-19T07:33:10.872Z,89.01
2019-01-19T07:35:43.704Z,89.60
2019-01-19T07:38:14.761Z,87.93
2019-01-19T07:40:46.021Z,87.50
2019-01-19T07:43:17.824Z,86.15
2019-01-19T07:45:48.811Z,84.31
2019-01-19T07:48:25.550Z,83.81
2019-01-19T07:51:06.692Z,83.51
2019-01-19T07:53:38.388Z,83.14
2019-01-19T07:56:11.803Z,83.85
2019-01-19T07:58:43.205Z,82.80
2019-01-19T08:01:15.442Z,81.36
2019-01-19T08:03:46.453Z,80.71
2019-01-19T08:06:17.619Z,81.13
2019-01-19T08:08:49.038Z,79.89
2019-01-19T08:11:19.951Z,78.99
2019-01-19T08:13:51.519Z,80.10
2019-01-19T08:16:22.490Z,81.98
2019-01-19T08:18:53.530Z,82.99
2019-01-19T08:21:24.567Z,82.48
2019-01-19T08:23:55.903Z,82.55
2019-01-19T08:26:27.357Z,81.19
2019-01-19T08:28:58.828Z,78.74
2019-01-19T08:31:29.854Z,78.50
2019-01-19T08:34:00.836Z,76.96
2019-01-19T08:36:31.950Z,76.60
2019-01-19T08:39:02.971Z,76.10
2019-01-19T08:41:33.934Z,74.64
2019-01-19T08:44:06.167Z,73.58
2019-01-19T08:46:37.514Z,72.38
2019-01-19T08:49:08.523Z,71.54
2019-01-19T08:51:39.864Z,71.85
2019-01-19T08:54:11.331Z,72.27
2019-01-19T08:56:42.745Z,71.32
2019-01-19T08:59:13.768Z,71.16
2019-01-19T09:01:45.158Z,70.52
2019-01-19T09:04:17.098Z,70.96
2019-01-19T09:06:48.085Z,71.56
2019-01-19T09:09:19.737Z,71.63
2019-01-19T09:11:50.697Z,72.35
2019-01-19T09:14:21.682Z,75.97
2019-01-19T09:16:53.790Z,76.69
2019-01-19T09:19:24.702Z,77.37
2019-01-19T09:21:55.815Z,78.33
2019-01-19T09:24:29.173Z,77.32
2019-01-19T09:27:00.228Z,75.68
2019-01-19T09:29:31.814Z,75.82
2019-01-19T09:32:03.392Z,76.29
2019-01-19T09:34:34.784Z,74.83
2019-01-19T09:37:06.122Z,75.30
2019-01-19T09:39:37.689Z,74.02
2019-01-19T09:42:08.673Z,74.36
2019-01-19T09:44:39.788Z,72.52
2019-01-19T09:47:10.751Z,71.89
2019-01-19T09:49:41.989Z,71.15
2019-01-19T09:52:12.947Z,70.00
2019-01-19T09:54:43.965Z,70.26
2019-01-19T09:57:16.682Z,70.81
2019-01-19T09:59:48.071Z,70.60
2019-01-19T10:02:20.267Z,69.32
2019-01-19T10:04:55.029Z,69.59
2019-01-19T10:07:27.018Z,68.22
2019-01-19T10:09:57.969Z,66.19
2019-01-19T10:12:28.980Z,65.34
2019-01-19T10:15:00.416Z,66.29
2019-01-19T10:17:31.767Z,66.71
2019-01-19T10:20:02.821Z,67.63
2019-01-19T10:22:33.984Z,67.69
2019-01-19T10:25:06.525Z,68.53
2019-01-19T10:27:37.616Z,67.37
2019-01-19T10:30:15.613Z,65.64
2019-01-19T10:32:47.030Z,65.27
2019-01-19T10:35:19.652Z,66.04
2019-01-19T10:37:56.320Z,65.93
2019-01-19T10:40:23.355Z,65.97
2019-01-19T10:42:54.415Z,67.88
2019-01-19T10:45:28.919Z,66.53
2019-01-19T10:47:59.817Z,66.29
2019-01-19T10:50:31.176Z,66.05
2019-01-19T10:53:02.125Z,65.68
2019-01-19T10:55:33.099Z,65.34
2019-01-19T10:58:04.086Z,63.54
2019-01-19T11:00:35.277Z,63.76
2019-01-19T11:03:06.472Z,65.33
2019-01-19T11:05:37.871Z,65.49
2019-01-19T11:08:10.565Z,65.53
2019-01-19T11:10:41.969Z,65.77
2019-01-19T11:13:13.400Z,64.64
2019-01-19T11:15:46.603Z,64.46
2019-01-19T11:18:18.044Z,64.18
2019-01-19T11:20:49.534Z,64.74
2019-01-19T11:23:20.533Z,65.18
2019-01-19T11:25:51.578Z,66.35
2019-01-19T11:28:22.556Z,66.90
2019-01-19T11:30:53.537Z,67.55
2019-01-19T11:33:24.636Z,67.70
2019-01-19T11:35:55.699Z,68.42
2019-01-19T11:38:26.618Z,69.64
2019-01-19T11:40:57.956Z,69.20
2019-01-19T11:43:29.363Z,66.99
2019-01-19T11:46:01.021Z,65.39
2019-01-19T11:48:31.997Z,63.75
2019-01-19T11:51:03.049Z,65.39
2019-01-19T11:53:34.187Z,66.15
2019-01-19T11:56:12.007Z,66.02
2019-01-19T11:58:38.782Z,66.02
2019-01-19T12:01:09.747Z,66.79
2019-01-19T12:03:40.805Z,66.08
2019-01-19T12:06:11.839Z,66.99
2019-01-19T12:08:43.298Z,66.55
2019-01-19T12:11:14.407Z,67.18
2019-01-19T12:13:45.723Z,66.49
2019-01-19T12:16:16.698Z,65.64
2019-01-19T12:18:48.050Z,65.90
2019-01-19T12:21:19.128Z,66.99
2019-01-19T12:23:51.906Z,66.43
2019-01-19T12:26:23.301Z,66.89
2019-01-19T12:28:55.189Z,65.09
2019-01-19T12:31:34.502Z,64.02
2019-01-19T12:34:06.160Z,63.51
2019-01-19T12:36:37.561Z,63.73
2019-01-19T12:39:11.672Z,64.38
2019-01-19T12:41:42.967Z,64.42
2019-01-19T12:44:13.964Z,66.46
2019-01-19T12:46:45.188Z,67.49
2019-01-19T12:49:20.862Z,68.29
2019-01-19T12:51:52.296Z,67.58
2019-01-19T12:54:23.767Z,66.63
2019-01-19T12:56:54.863Z,67.21
2019-01-19T12:59:25.810Z,67.74
2019-01-19T13:01:57.184Z,67.69
2019-01-19T13:04:29.880Z,68.40
2019-01-19T13:07:11.335Z,69.44
2019-01-19T13:09:46.099Z,69.05
2019-01-19T13:12:35.291Z,69.59
2019-01-19T13:15:53.899Z,68.37
2019-01-19T13:19:04.556Z,69.14
2019-01-19T13:22:12.814Z,68.64
2019-01-19T13:25:40.156Z,68.80
2019-01-19T13:29:01.078Z,68.57
2019-01-19T13:36:11.888Z,66.05
2019-01-19T13:39:00.964Z,65.72
2019-01-19T13:42:14.118Z,64.57
2019-01-19T13:45:27.901Z,63.03
2019-01-19T13:48:26.125Z,59.14
2019-01-19T13:51:21.788Z,59.78
2019-01-19T13:54:42.339Z,61.81
2019-01-19T13:57:28.475Z,62.63
2019-01-19T14:00:24.667Z,63.81
2019-01-19T14:03:23.271Z,65.42
2019-01-19T14:06:34.416Z,64.65
2019-01-19T14:10:00.246Z,64.96
2019-01-19T14:12:54.558Z,68.13
2019-01-19T14:15:56.987Z,66.43
2019-01-19T14:19:07.877Z,67.51
2019-01-19T14:22:07.341Z,67.75
2019-01-19T14:25:00.097Z,69.91
2019-01-19T14:28:17.760Z,69.59
2019-01-19T14:31:35.015Z,70.01
2019-01-19T14:34:46.043Z,70.70
2019-01-19T14:37:34.813Z,71.08
2019-01-19T14:40:28.817Z,72.33
2019-01-19T14:43:42.679Z,74.84
2019-01-19T14:46:46.067Z,74.52
2019-01-19T14:49:57.705Z,75.15
2019-01-19T14:53:15.769Z,75.30
2019-01-19T14:56:36.675Z,76.58
2019-01-19T14:59:34.238Z,76.96
2019-01-19T15:02:51.940Z,79.44
2019-01-19T15:05:50.922Z,79.28
2019-01-19T15:08:33.193Z,80.84
2019-01-19T15:11:50.829Z,80.50
2019-01-19T15:14:59.219Z,81.96
2019-01-19T15:18:19.002Z,83.03
2019-01-19T15:21:32.824Z,84.39
2019-01-19T15:24:40.182Z,85.25
2019-01-19T15:27:53.579Z,84.17
2019-01-19T15:30:57.697Z,84.76
2019-01-19T15:34:00.339Z,85.20
2019-01-19T15:37:23.547Z,85.28
2019-01-19T15:40:35.289Z,86.04
2019-01-19T15:43:46.944Z,86.34
2019-01-19T15:47:01.660Z,85.82
2019-01-19T15:50:08.325Z,86.13
2019-01-19T15:53:29.290Z,86.88
2019-01-19T15:56:43.596Z,87.06
2019-01-19T15:59:28.920Z,87.50
2019-01-19T16:02:45.065Z,87.28
2019-01-19T16:05:48.575Z,87.59
2019-01-19T16:08:32.435Z,89.12
2019-01-19T16:11:23.524Z,90.23
2019-01-19T16:14:50.983Z,89.31
2019-01-19T16:17:58.176Z,89.30
2019-01-19T16:21:19.019Z,88.98
2019-01-19T16:24:19.883Z,88.98
2019-01-19T16:27:16.277Z,89.26
2019-01-19T16:30:22.517Z,89.21
2019-01-19T16:33:52.426Z,89.13
2019-01-19T16:37:08.401Z,89.79
2019-01-19T16:40:07.057Z,90.30
2019-01-19T16:43:35.084Z,91.03
2019-01-19T16:47:17.556Z,91.55
2019-01-19T16:50:28.137Z,93.71
2019-01-19T16:53:18.930Z,93.95
2019-01-19T16:56:16.225Z,93.89
2019-01-19T16:59:28.151Z,94.49
2019-01-19T17:02:20.439Z,91.33
2019-01-19T17:05:36.195Z,90.14
2019-01-19T17:08:46.508Z,91.06
2019-01-19T17:11:51.075Z,91.34
2019-01-19T17:15:03.420Z,91.34
2019-01-19T17:18:24.096Z,91.83
2019-01-19T17:21:37.723Z,92.26
2019-01-19T17:24:33.668Z,93.11
2019-01-19T17:27:36.450Z,92.35
2019-01-19T17:30:48.053Z,92.57
2019-01-19T17:33:48.866Z,92.92
2019-01-19T17:37:10.090Z,92.23
2019-01-19T17:40:27.263Z,91.97
2019-01-19T17:43:57.345Z,93.22
2019-01-19T17:46:49.507Z,93.13
2019-01-19T17:50:16.785Z,92.88
2019-01-19T17:53:17.491Z,93.16
2019-01-19T17:56:24.399Z,93.60
2019-01-19T17:59:35.285Z,93.30
2019-01-19T18:02:58.488Z,92.29
2019-01-19T18:06:03.490Z,93.05
2019-01-19T18:09:03.909Z,92.69
2019-01-19T18:12:14.098Z,93.60
2019-01-19T18:15:18.160Z,94.04
2019-01-19T18:18:31.317Z,94.98
2019-01-19T18:21:52.548Z,94.53
2019-01-19T18:25:04.305Z,95.09
2019-01-19T18:28:19.282Z,96.22
2019-01-19T18:31:45.098Z,95.63
2019-01-19T18:34:48.598Z,94.83
2019-01-19T18:37:49.683Z,93.49
2019-01-19T18:41:10.087Z,94.77
2019-01-19T18:44:02.871Z,95.97
2019-01-19T18:47:10.909Z,95.59
2019-01-19T18:50:37.942Z,96.19
2019-01-19T18:53:48.399Z,96.26
2019-01-19T18:56:49.926Z,95.69
2019-01-19T18:59:41.837Z,97.00
2019-01-19T19:02:29.652Z,97.48
2019-01-19T19:05:17.862Z,98.33
2019-01-19T19:08:47.989Z,98.13
2019-01-19T19:12:02.977Z,97.11
2019-01-19T19:15:22.963Z,96.94
2019-01-19T19:18:14.935Z,97.11
2019-01-19T19:21:30.503Z,97.60
2019-01-19T19:24:16.351Z,97.75
2019-01-19T19:27:23.846Z,99.11
2019-01-19T19:30:06.574Z,98.75
2019-01-19T19:33:24.282Z,100.00
2019-01-19T19:36:41.601Z,100.00
2019-01-19T19:39:38.199Z,98.90
2019-01-19T19:42:45.470Z,98.61
2019-01-19T19:45:57.329Z,99.00
2019-01-19T19:49:24.283Z,98.97
2019-01-19T19:51:58.741Z,99.72
2019-01-19T19:54:31.474Z,97.99
2019-01-19T19:57:02.753Z,98.77
2019-01-19T19:59:34.469Z,100.00
2019-01-19T20:02:08.941Z,100.00
2019-01-19T20:04:41.123Z,100.00
2019-01-19T20:07:21.213Z,100.00
2019-01-19T20:09:52.206Z,99.55
2019-01-19T20:12:24.727Z,99.47
2019-01-19T20:14:59.069Z,100.00
2019-01-19T20:17:30.438Z,100.00
2019-01-19T20:20:02.677Z,100.00
2019-01-19T20:22:34.052Z,100.00
2019-01-19T20:25:06.128Z,100.00
2019-01-19T20:27:37.256Z,100.00
2019-01-19T20:30:11.050Z,100.00
2019-01-19T20:32:42.430Z,100.00
2019-01-19T20:35:17.999Z,100.00
2019-01-19T20:37:54.738Z,100.00
2019-01-19T20:40:29.316Z,100.00
2019-01-19T20:43:00.847Z,100.00
2019-01-19T20:45:31.911Z,100.00
2019-01-19T20:48:04.044Z,100.00
2019-01-19T20:50:35.144Z,100.00
2019-01-19T20:53:06.269Z,100.00
2019-01-19T20:55:37.366Z,100.00
2019-01-19T20:58:09.087Z,100.00
2019-01-19T21:01:05.284Z,100.00
2019-01-19T21:03:57.449Z,100.00
2019-01-19T21:06:52.193Z,100.00
2019-01-19T21:09:44.277Z,100.00
2019-01-19T21:12:41.721Z,100.00
2019-01-19T21:15:34.785Z,100.00
2019-01-19T21:18:27.306Z,100.00
2019-01-19T21:21:17.032Z,100.00
2019-01-19T21:24:07.650Z,100.00
2019-01-19T21:26:57.277Z,100.00
2019-01-19T21:29:46.987Z,100.00
2019-01-19T21:32:36.799Z,99.62
2019-01-19T21:35:26.353Z,99.61
2019-01-19T21:38:16.812Z,100.00
2019-01-19T21:41:07.507Z,100.00
2019-01-19T21:44:00.218Z,100.00
2019-01-19T21:46:55.345Z,100.00
2019-01-19T21:49:44.900Z,100.00
2019-01-19T21:52:34.874Z,100.00
2019-01-19T21:55:24.574Z,100.00
2019-01-19T21:58:14.796Z,100.00
2019-01-19T22:01:04.613Z,100.00
2019-01-19T22:03:59.181Z,100.00
2019-01-19T22:06:48.977Z,100.00
2019-01-19T22:09:38.805Z,100.00
2019-01-19T22:12:28.790Z,100.00
2019-01-19T22:15:19.385Z,100.00
2019-01-19T22:18:09.150Z,100.00
2019-01-19T22:20:58.721Z,100.00
2019-01-19T22:23:48.351Z,100.00
2019-01-19T22:26:38.751Z,100.00
2019-01-19T22:29:28.026Z,100.00
2019-01-19T22:32:17.793Z,100.00
2019-01-19T22:35:08.518Z,100.00
2019-01-19T22:37:57.302Z,100.00
2019-01-19T22:40:53.458Z,100.00
2019-01-19T22:43:38.584Z,100.00
2019-01-19T22:46:29.397Z,100.00
2019-01-19T22:49:20.232Z,100.00
2019-01-19T22:52:09.976Z,100.00
2019-01-19T22:54:59.808Z,100.00
2019-01-19T22:57:49.529Z,100.00
2019-01-19T23:01:36.282Z,100.00
2019-01-19T23:04:26.477Z,100.00
2019-01-19T23:07:16.462Z,100.00
2019-01-19T23:10:06.418Z,100.00
2019-01-19T23:12:56.634Z,100.00
2019-01-19T23:15:46.113Z,100.00
2019-01-19T23:18:36.149Z,100.00
2019-01-19T23:21:24.814Z,100.00
2019-01-19T23:24:15.147Z,100.00
2019-01-19T23:27:07.725Z,100.00
2019-01-19T23:29:57.609Z,100.00
2019-01-19T23:32:47.375Z,100.00
2019-01-19T23:35:36.365Z,100.00
2019-01-19T23:38:25.359Z,100.00
2019-01-19T23:41:14.993Z,100.00
2019-01-19T23:44:04.703Z,100.00
2019-01-19T23:46:54.384Z,100.00
2019-01-19T23:49:43.820Z,100.00
2019-01-19T23:52:33.010Z,100.00
2019-01-19T23:55:22.488Z,100.00
2019-01-19T23:58:12.210Z,100.00
